sensor_id;sensor_type;location;lat;lon;timestamp;pressure;altitude;pressure_sealevel;temperature;humidity
45621;BME280;31345;51.522;10.702;2023-05-29T00:01:24;99445.19;;;13.19;91.16
45621;BME280;31345;51.522;10.702;2023-05-29T00:03:53;99454.44;;;12.98;92.78
45621;BME280;31345;51.522;10.702;2023-05-29T00:06:26;99454.28;;;12.76;94.49
45621;BME280;31345;51.522;10.702;2023-05-29T00:08:58;99454.72;;;12.43;97.89
45621;BME280;31345;51.522;10.702;2023-05-29T00:11:32;99455.53;;;12.44;97.91
45621;BME280;31345;51.522;10.702;2023-05-29T00:14:05;99445.47;;;12.25;99.02
45621;BME280;31345;51.522;10.702;2023-05-29T00:16:37;99446.69;;;12.06;97.65
45621;BME280;31345;51.522;10.702;2023-05-29T00:19:05;99452.03;;;11.77;100.00
45621;BME280;31345;51.522;10.702;2023-05-29T00:21:32;99444.56;;;11.70;100.00
45621;BME280;31345;51.522;10.702;2023-05-29T00:24:05;99446.34;;;11.70;100.00
45621;BME280;31345;51.522;10.702;2023-05-29T00:26:34;99449.44;;;11.49;100.00
45621;BME280;31345;51.522;10.702;2023-05-29T00:29:07;99450.28;;;11.35;100.00
45621;BME280;31345;51.522;10.702;2023-05-29T00:31:40;99455.91;;;11.29;100.00
45621;BME280;31345;51.522;10.702;2023-05-29T00:34:12;99458.84;;;11.10;100.00
45621;BME280;31345;51.522;10.702;2023-05-29T00:36:45;99456.03;;;11.13;100.00
45621;BME280;31345;51.522;10.702;2023-05-29T00:39:13;99455.88;;;11.01;100.00
45621;BME280;31345;51.522;10.702;2023-05-29T00:41:48;99460.63;;;10.95;100.00
45621;BME280;31345;51.522;10.702;2023-05-29T00:44:22;99453.72;;;10.94;100.00
45621;BME280;31345;51.522;10.702;2023-05-29T00:46:54;99458.50;;;10.87;100.00
45621;BME280;31345;51.522;10.702;2023-05-29T00:49:22;99442.53;;;10.77;100.00
45621;BME280;31345;51.522;10.702;2023-05-29T00:52:14;99447.47;;;10.67;100.00
45621;BME280;31345;51.522;10.702;2023-05-29T00:54:47;99449.50;;;10.76;100.00
45621;BME280;31345;51.522;10.702;2023-05-29T00:57:21;99447.19;;;10.57;100.00
45621;BME280;31345;51.522;10.702;2023-05-29T00:59:55;99457.44;;;10.31;100.00
45621;BME280;31345;51.522;10.702;2023-05-29T01:02:28;99453.09;;;10.16;100.00
45621;BME280;31345;51.522;10.702;2023-05-29T01:05:01;99457.44;;;10.31;100.00
45621;BME280;31345;51.522;10.702;2023-05-29T01:07:34;99451.34;;;10.31;100.00
45621;BME280;31345;51.522;10.702;2023-05-29T01:10:07;99462.53;;;10.18;100.00
45621;BME280;31345;51.522;10.702;2023-05-29T01:12:40;99463.63;;;10.14;100.00
45621;BME280;31345;51.522;10.702;2023-05-29T01:15:27;99470.78;;;10.10;100.00
45621;BME280;31345;51.522;10.702;2023-05-29T01:18:19;99473.19;;;9.83;100.00
45621;BME280;31345;51.522;10.702;2023-05-29T01:21:00;99483.75;;;9.65;100.00
45621;BME280;31345;51.522;10.702;2023-05-29T01:23:52;99482.13;;;9.62;100.00
45621;BME280;31345;51.522;10.702;2023-05-29T01:26:49;99487.56;;;9.59;100.00
45621;BME280;31345;51.522;10.702;2023-05-29T01:29:26;99474.63;;;9.72;100.00
45621;BME280;31345;51.522;10.702;2023-05-29T01:32:00;99477.16;;;9.74;100.00
45621;BME280;31345;51.522;10.702;2023-05-29T01:34:28;99480.47;;;9.61;100.00
45621;BME280;31345;51.522;10.702;2023-05-29T01:37:01;99478.09;;;9.73;100.00
45621;BME280;31345;51.522;10.702;2023-05-29T01:39:34;99475.31;;;9.60;100.00
45621;BME280;31345;51.522;10.702;2023-05-29T01:42:04;99483.50;;;9.54;100.00
45621;BME280;31345;51.522;10.702;2023-05-29T01:44:35;99488.03;;;9.50;100.00
45621;BME280;31345;51.522;10.702;2023-05-29T01:47:08;99482.81;;;9.50;100.00
45621;BME280;31345;51.522;10.702;2023-05-29T01:49:41;99487.63;;;9.58;100.00
45621;BME280;31345;51.522;10.702;2023-05-29T01:52:15;99479.03;;;9.72;100.00
45621;BME280;31345;51.522;10.702;2023-05-29T01:54:48;99479.63;;;9.45;100.00
45621;BME280;31345;51.522;10.702;2023-05-29T01:57:17;99485.00;;;9.42;100.00
45621;BME280;31345;51.522;10.702;2023-05-29T01:59:50;99486.88;;;9.40;100.00
45621;BME280;31345;51.522;10.702;2023-05-29T02:02:23;99480.38;;;9.31;100.00
45621;BME280;31345;51.522;10.702;2023-05-29T02:04:50;99485.59;;;9.47;100.00
45621;BME280;31345;51.522;10.702;2023-05-29T02:07:23;99491.06;;;9.58;100.00
45621;BME280;31345;51.522;10.702;2023-05-29T02:09:50;99492.25;;;9.53;100.00
45621;BME280;31345;51.522;10.702;2023-05-29T02:12:24;99496.47;;;9.39;100.00
45621;BME280;31345;51.522;10.702;2023-05-29T02:14:57;99491.59;;;9.49;100.00
45621;BME280;31345;51.522;10.702;2023-05-29T02:17:31;99497.47;;;9.36;100.00
45621;BME280;31345;51.522;10.702;2023-05-29T02:20:00;99491.69;;;9.31;100.00
45621;BME280;31345;51.522;10.702;2023-05-29T02:22:35;99496.00;;;9.15;100.00
45621;BME280;31345;51.522;10.702;2023-05-29T02:25:08;99498.19;;;9.06;100.00
45621;BME280;31345;51.522;10.702;2023-05-29T02:27:42;99498.91;;;8.92;100.00
45621;BME280;31345;51.522;10.702;2023-05-29T02:30:14;99500.00;;;8.88;100.00
45621;BME280;31345;51.522;10.702;2023-05-29T02:32:47;99500.63;;;8.93;100.00
45621;BME280;31345;51.522;10.702;2023-05-29T02:35:14;99494.72;;;8.90;100.00
45621;BME280;31345;51.522;10.702;2023-05-29T02:37:49;99504.09;;;8.76;100.00
45621;BME280;31345;51.522;10.702;2023-05-29T02:40:17;99501.59;;;8.91;100.00
45621;BME280;31345;51.522;10.702;2023-05-29T02:42:51;99507.38;;;8.97;100.00
45621;BME280;31345;51.522;10.702;2023-05-29T02:45:19;99517.16;;;8.92;100.00
45621;BME280;31345;51.522;10.702;2023-05-29T02:47:52;99524.09;;;8.76;100.00
45621;BME280;31345;51.522;10.702;2023-05-29T02:50:19;99524.03;;;8.77;100.00
45621;BME280;31345;51.522;10.702;2023-05-29T02:52:47;99524.19;;;8.74;100.00
45621;BME280;31345;51.522;10.702;2023-05-29T02:55:15;99528.94;;;8.83;100.00
45621;BME280;31345;51.522;10.702;2023-05-29T02:57:47;99534.97;;;8.84;100.00
45621;BME280;31345;51.522;10.702;2023-05-29T03:00:26;99524.63;;;8.82;100.00
45621;BME280;31345;51.522;10.702;2023-05-29T03:03:03;99522.47;;;8.91;100.00
45621;BME280;31345;51.522;10.702;2023-05-29T03:05:35;99518.06;;;8.75;100.00
45621;BME280;31345;51.522;10.702;2023-05-29T03:08:08;99522.22;;;8.62;100.00
45621;BME280;31345;51.522;10.702;2023-05-29T03:10:36;99523.31;;;8.40;100.00
45621;BME280;31345;51.522;10.702;2023-05-29T03:13:09;99523.13;;;8.60;100.00
45621;BME280;31345;51.522;10.702;2023-05-29T03:15:46;99524.81;;;8.79;100.00
45621;BME280;31345;51.522;10.702;2023-05-29T03:18:20;99529.72;;;8.68;100.00
45621;BME280;31345;51.522;10.702;2023-05-29T03:20:53;99519.84;;;8.57;100.00
45621;BME280;31345;51.522;10.702;2023-05-29T03:23:26;99522.81;;;8.49;100.00
45621;BME280;31345;51.522;10.702;2023-05-29T03:25:54;99528.13;;;8.47;100.00
45621;BME280;31345;51.522;10.702;2023-05-29T03:28:21;99519.47;;;8.47;100.00
45621;BME280;31345;51.522;10.702;2023-05-29T03:30:56;99519.00;;;8.56;100.00
45621;BME280;31345;51.522;10.702;2023-05-29T03:33:24;99522.66;;;8.34;100.00
45621;BME280;31345;51.522;10.702;2023-05-29T03:36:12;99522.97;;;8.46;100.00
45621;BME280;31345;51.522;10.702;2023-05-29T03:38:45;99522.31;;;8.42;100.00
45621;BME280;31345;51.522;10.702;2023-05-29T03:41:18;99519.78;;;8.41;100.00
45621;BME280;31345;51.522;10.702;2023-05-29T03:43:45;99510.03;;;8.44;100.00
45621;BME280;31345;51.522;10.702;2023-05-29T03:46:15;99518.44;;;8.32;100.00
45621;BME280;31345;51.522;10.702;2023-05-29T03:48:48;99523.53;;;8.35;100.00
45621;BME280;31345;51.522;10.702;2023-05-29T03:51:15;99531.03;;;8.41;100.00
45621;BME280;31345;51.522;10.702;2023-05-29T03:53:43;99534.78;;;8.53;100.00
45621;BME280;31345;51.522;10.702;2023-05-29T03:56:10;99526.97;;;8.71;100.00
45621;BME280;31345;51.522;10.702;2023-05-29T03:58:42;99534.50;;;8.59;100.00
45621;BME280;31345;51.522;10.702;2023-05-29T04:01:10;99540.69;;;8.39;100.00
45621;BME280;31345;51.522;10.702;2023-05-29T04:03:44;99551.97;;;8.40;100.00
45621;BME280;31345;51.522;10.702;2023-05-29T04:06:13;99556.09;;;8.62;100.00
45621;BME280;31345;51.522;10.702;2023-05-29T04:08:46;99551.81;;;8.60;100.00
45621;BME280;31345;51.522;10.702;2023-05-29T04:11:19;99554.41;;;8.60;100.00
45621;BME280;31345;51.522;10.702;2023-05-29T04:13:53;99562.13;;;8.44;100.00
45621;BME280;31345;51.522;10.702;2023-05-29T04:16:26;99563.22;;;8.58;100.00
45621;BME280;31345;51.522;10.702;2023-05-29T04:18:55;99562.91;;;8.64;100.00
45621;BME280;31345;51.522;10.702;2023-05-29T04:21:31;99570.19;;;8.57;100.00
45621;BME280;31345;51.522;10.702;2023-05-29T04:24:06;99583.47;;;8.70;100.00
45621;BME280;31345;51.522;10.702;2023-05-29T04:26:38;99580.16;;;8.84;100.00
45621;BME280;31345;51.522;10.702;2023-05-29T04:29:13;99583.38;;;8.90;100.00
45621;BME280;31345;51.522;10.702;2023-05-29T04:31:47;99574.84;;;9.04;100.00
45621;BME280;31345;51.522;10.702;2023-05-29T04:34:21;99578.91;;;9.09;100.00
45621;BME280;31345;51.522;10.702;2023-05-29T04:36:48;99582.66;;;9.21;100.00
45621;BME280;31345;51.522;10.702;2023-05-29T04:39:21;99584.31;;;9.22;100.00
45621;BME280;31345;51.522;10.702;2023-05-29T04:41:49;99587.56;;;9.44;100.00
45621;BME280;31345;51.522;10.702;2023-05-29T04:44:21;99592.81;;;9.60;100.00
45621;BME280;31345;51.522;10.702;2023-05-29T04:46:52;99588.72;;;10.04;100.00
45621;BME280;31345;51.522;10.702;2023-05-29T04:49:26;99588.16;;;10.46;100.00
45621;BME280;31345;51.522;10.702;2023-05-29T04:52:00;99585.75;;;11.02;100.00
45621;BME280;31345;51.522;10.702;2023-05-29T04:54:34;99572.94;;;11.27;100.00
45621;BME280;31345;51.522;10.702;2023-05-29T04:57:07;99590.78;;;11.64;100.00
45621;BME280;31345;51.522;10.702;2023-05-29T04:59:40;99588.16;;;11.78;100.00
45621;BME280;31345;51.522;10.702;2023-05-29T05:02:12;99580.22;;;11.80;100.00
45621;BME280;31345;51.522;10.702;2023-05-29T05:04:41;99589.78;;;12.08;100.00
45621;BME280;31345;51.522;10.702;2023-05-29T05:07:09;99591.97;;;12.02;100.00
45621;BME280;31345;51.522;10.702;2023-05-29T05:09:37;99594.94;;;12.10;100.00
45621;BME280;31345;51.522;10.702;2023-05-29T05:12:05;99582.16;;;12.18;100.00
45621;BME280;31345;51.522;10.702;2023-05-29T05:14:34;99588.66;;;12.40;100.00
45621;BME280;31345;51.522;10.702;2023-05-29T05:17:02;99590.47;;;12.53;100.00
45621;BME280;31345;51.522;10.702;2023-05-29T05:19:34;99590.50;;;12.79;100.00
45621;BME280;31345;51.522;10.702;2023-05-29T05:22:04;99589.28;;;13.10;100.00
45621;BME280;31345;51.522;10.702;2023-05-29T05:24:36;99588.63;;;13.33;100.00
45621;BME280;31345;51.522;10.702;2023-05-29T05:27:04;99588.41;;;13.62;99.10
45621;BME280;31345;51.522;10.702;2023-05-29T05:29:37;99591.91;;;13.87;100.00
45621;BME280;31345;51.522;10.702;2023-05-29T05:32:05;99585.09;;;14.09;95.00
45621;BME280;31345;51.522;10.702;2023-05-29T05:34:39;99588.66;;;14.32;95.54
45621;BME280;31345;51.522;10.702;2023-05-29T05:37:14;99580.66;;;14.58;88.38
45621;BME280;31345;51.522;10.702;2023-05-29T05:39:47;99584.16;;;14.82;87.93
45621;BME280;31345;51.522;10.702;2023-05-29T05:42:20;99587.34;;;14.98;86.68
45621;BME280;31345;51.522;10.702;2023-05-29T05:44:52;99582.94;;;15.22;85.80
45621;BME280;31345;51.522;10.702;2023-05-29T05:47:25;99586.63;;;15.30;87.05
45621;BME280;31345;51.522;10.702;2023-05-29T05:49:58;99591.34;;;15.50;84.07
45621;BME280;31345;51.522;10.702;2023-05-29T05:52:32;99590.81;;;15.56;82.91
45621;BME280;31345;51.522;10.702;2023-05-29T05:55:06;99584.59;;;15.57;82.73
45621;BME280;31345;51.522;10.702;2023-05-29T05:57:40;99584.69;;;15.78;82.33
45621;BME280;31345;51.522;10.702;2023-05-29T06:00:13;99585.75;;;15.99;82.84
45621;BME280;31345;51.522;10.702;2023-05-29T06:02:49;99584.88;;;16.10;78.89
45621;BME280;31345;51.522;10.702;2023-05-29T06:05:36;99582.69;;;16.15;78.55
45621;BME280;31345;51.522;10.702;2023-05-29T06:08:08;99585.53;;;16.23;81.41
45621;BME280;31345;51.522;10.702;2023-05-29T06:10:40;99583.84;;;16.33;79.75
45621;BME280;31345;51.522;10.702;2023-05-29T06:13:13;99589.84;;;16.57;79.61
45621;BME280;31345;51.522;10.702;2023-05-29T06:15:47;99585.75;;;16.64;76.38
45621;BME280;31345;51.522;10.702;2023-05-29T06:18:15;99594.16;;;16.79;78.30
45621;BME280;31345;51.522;10.702;2023-05-29T06:20:47;99593.72;;;16.74;75.75
45621;BME280;31345;51.522;10.702;2023-05-29T06:23:21;99592.19;;;16.71;72.66
45621;BME280;31345;51.522;10.702;2023-05-29T06:25:55;99592.25;;;16.81;73.16
45621;BME280;31345;51.522;10.702;2023-05-29T06:28:22;99603.56;;;16.93;75.47
45621;BME280;31345;51.522;10.702;2023-05-29T06:30:50;99606.19;;;17.15;71.69
45621;BME280;31345;51.522;10.702;2023-05-29T06:33:23;99609.16;;;17.21;74.75
45621;BME280;31345;51.522;10.702;2023-05-29T06:35:56;99600.69;;;17.49;71.06
45621;BME280;31345;51.522;10.702;2023-05-29T06:38:30;99601.13;;;17.54;69.55
45621;BME280;31345;51.522;10.702;2023-05-29T06:40:58;99604.47;;;17.56;69.00
45621;BME280;31345;51.522;10.702;2023-05-29T06:43:31;99606.69;;;17.61;67.90
45621;BME280;31345;51.522;10.702;2023-05-29T06:46:03;99599.50;;;17.73;66.98
45621;BME280;31345;51.522;10.702;2023-05-29T06:48:36;99605.28;;;17.98;74.83
45621;BME280;31345;51.522;10.702;2023-05-29T06:51:04;99604.19;;;18.10;65.64
45621;BME280;31345;51.522;10.702;2023-05-29T06:53:46;99605.97;;;18.00;64.65
45621;BME280;31345;51.522;10.702;2023-05-29T06:56:19;99608.59;;;18.00;66.11
45621;BME280;31345;51.522;10.702;2023-05-29T06:58:52;99607.53;;;18.12;67.78
45621;BME280;31345;51.522;10.702;2023-05-29T07:01:26;99606.97;;;18.38;69.27
45621;BME280;31345;51.522;10.702;2023-05-29T07:04:06;99613.00;;;18.60;65.79
45621;BME280;31345;51.522;10.702;2023-05-29T07:06:39;99617.59;;;18.58;65.68
45621;BME280;31345;51.522;10.702;2023-05-29T07:09:08;99622.03;;;18.68;66.08
45621;BME280;31345;51.522;10.702;2023-05-29T07:11:40;99621.63;;;18.72;61.31
45621;BME280;31345;51.522;10.702;2023-05-29T07:14:08;99623.44;;;18.72;60.76
45621;BME280;31345;51.522;10.702;2023-05-29T07:16:41;99622.03;;;18.68;62.86
45621;BME280;31345;51.522;10.702;2023-05-29T07:19:09;99619.38;;;18.77;62.15
45621;BME280;31345;51.522;10.702;2023-05-29T07:21:37;99623.00;;;18.86;61.24
45621;BME280;31345;51.522;10.702;2023-05-29T07:24:12;99621.44;;;19.13;62.01
45621;BME280;31345;51.522;10.702;2023-05-29T07:26:44;99622.94;;;19.16;63.18
45621;BME280;31345;51.522;10.702;2023-05-29T07:29:17;99630.03;;;19.25;60.10
45621;BME280;31345;51.522;10.702;2023-05-29T07:31:52;99628.34;;;19.34;60.92
45621;BME280;31345;51.522;10.702;2023-05-29T07:34:21;99619.50;;;19.43;59.77
45621;BME280;31345;51.522;10.702;2023-05-29T07:36:56;99627.47;;;19.34;59.57
45621;BME280;31345;51.522;10.702;2023-05-29T07:39:26;99628.41;;;19.52;60.05
45621;BME280;31345;51.522;10.702;2023-05-29T07:41:59;99629.88;;;19.75;59.85
45621;BME280;31345;51.522;10.702;2023-05-29T07:44:32;99619.34;;;19.83;62.10
45621;BME280;31345;51.522;10.702;2023-05-29T07:47:05;99620.38;;;20.00;57.74
45621;BME280;31345;51.522;10.702;2023-05-29T07:49:46;99619.09;;;20.04;62.21
45621;BME280;31345;51.522;10.702;2023-05-29T07:52:19;99622.38;;;20.16;60.34
45621;BME280;31345;51.522;10.702;2023-05-29T07:54:54;99618.03;;;20.15;62.63
45621;BME280;31345;51.522;10.702;2023-05-29T07:57:24;99620.53;;;20.35;60.88
45621;BME280;31345;51.522;10.702;2023-05-29T07:59:58;99615.22;;;20.53;59.06
45621;BME280;31345;51.522;10.702;2023-05-29T08:02:32;99615.34;;;20.88;57.99
45621;BME280;31345;51.522;10.702;2023-05-29T08:05:20;99619.84;;;20.88;58.41
45621;BME280;31345;51.522;10.702;2023-05-29T08:07:48;99620.00;;;20.86;55.44
45621;BME280;31345;51.522;10.702;2023-05-29T08:10:17;99631.19;;;20.98;60.15
45621;BME280;31345;51.522;10.702;2023-05-29T08:12:49;99624.78;;;20.82;56.56
45621;BME280;31345;51.522;10.702;2023-05-29T08:15:23;99629.19;;;20.74;59.41
45621;BME280;31345;51.522;10.702;2023-05-29T08:17:57;99629.56;;;20.79;58.36
45621;BME280;31345;51.522;10.702;2023-05-29T08:20:30;99635.00;;;20.95;54.48
45621;BME280;31345;51.522;10.702;2023-05-29T08:25:49;99626.06;;;20.96;53.94
45621;BME280;31345;51.522;10.702;2023-05-29T08:31:04;99628.06;;;21.29;54.10
45621;BME280;31345;51.522;10.702;2023-05-29T08:33:32;99626.28;;;21.65;57.45
45621;BME280;31345;51.522;10.702;2023-05-29T08:36:04;99624.06;;;21.25;55.00
45621;BME280;31345;51.522;10.702;2023-05-29T08:38:38;99630.59;;;21.04;53.74
45621;BME280;31345;51.522;10.702;2023-05-29T08:41:17;99619.69;;;20.89;53.56
45621;BME280;31345;51.522;10.702;2023-05-29T08:43:53;99627.91;;;20.78;56.72
45621;BME280;31345;51.522;10.702;2023-05-29T08:46:27;99630.66;;;20.68;55.70
45621;BME280;31345;51.522;10.702;2023-05-29T08:49:01;99633.94;;;20.88;56.89
45621;BME280;31345;51.522;10.702;2023-05-29T08:51:37;99628.47;;;20.90;51.90
45621;BME280;31345;51.522;10.702;2023-05-29T08:54:11;99640.22;;;21.32;52.72
45621;BME280;31345;51.522;10.702;2023-05-29T08:56:47;99645.09;;;21.45;61.10
45621;BME280;31345;51.522;10.702;2023-05-29T08:59:15;99636.47;;;21.43;56.28
45621;BME280;31345;51.522;10.702;2023-05-29T09:01:43;99631.47;;;21.74;51.46
45621;BME280;31345;51.522;10.702;2023-05-29T09:04:16;99627.44;;;21.62;49.01
45621;BME280;31345;51.522;10.702;2023-05-29T09:06:49;99628.91;;;21.30;50.65
45621;BME280;31345;51.522;10.702;2023-05-29T09:09:18;99635.16;;;21.47;52.59
45621;BME280;31345;51.522;10.702;2023-05-29T09:11:48;99640.38;;;21.57;61.45
45621;BME280;31345;51.522;10.702;2023-05-29T09:14:34;99622.44;;;22.19;54.60
45621;BME280;31345;51.522;10.702;2023-05-29T09:17:02;99623.91;;;22.05;49.08
45621;BME280;31345;51.522;10.702;2023-05-29T09:19:35;99626.84;;;21.85;51.54
45621;BME280;31345;51.522;10.702;2023-05-29T09:22:11;99632.09;;;21.68;49.53
45621;BME280;31345;51.522;10.702;2023-05-29T09:24:47;99636.78;;;21.74;53.25
45621;BME280;31345;51.522;10.702;2023-05-29T09:27:24;99636.94;;;21.73;50.41
45621;BME280;31345;51.522;10.702;2023-05-29T09:29:57;99627.22;;;22.07;52.04
45621;BME280;31345;51.522;10.702;2023-05-29T09:32:32;99638.75;;;22.16;52.27
45621;BME280;31345;51.522;10.702;2023-05-29T09:35:00;99636.38;;;22.04;53.55
45621;BME280;31345;51.522;10.702;2023-05-29T09:37:32;99641.28;;;22.34;50.14
45621;BME280;31345;51.522;10.702;2023-05-29T09:40:07;99651.28;;;22.40;50.51
45621;BME280;31345;51.522;10.702;2023-05-29T09:42:44;99653.78;;;22.50;48.00
45621;BME280;31345;51.522;10.702;2023-05-29T09:45:17;99647.66;;;22.66;48.66
45621;BME280;31345;51.522;10.702;2023-05-29T09:47:51;99648.81;;;22.55;51.52
45621;BME280;31345;51.522;10.702;2023-05-29T09:50:25;99648.81;;;22.55;56.42
45621;BME280;31345;51.522;10.702;2023-05-29T09:52:56;99639.16;;;22.71;50.10
45621;BME280;31345;51.522;10.702;2023-05-29T09:55:25;99643.31;;;22.82;49.26
45621;BME280;31345;51.522;10.702;2023-05-29T09:58:00;99643.13;;;22.58;48.26
45621;BME280;31345;51.522;10.702;2023-05-29T10:00:33;99633.75;;;22.29;52.63
45621;BME280;31345;51.522;10.702;2023-05-29T10:03:05;99632.19;;;21.85;54.52
45621;BME280;31345;51.522;10.702;2023-05-29T10:05:39;99639.03;;;22.04;54.94
45621;BME280;31345;51.522;10.702;2023-05-29T10:08:12;99643.28;;;22.48;55.92
45621;BME280;31345;51.522;10.702;2023-05-29T10:10:46;99629.31;;;22.63;47.76
45621;BME280;31345;51.522;10.702;2023-05-29T10:13:22;99646.63;;;22.84;51.04
45621;BME280;31345;51.522;10.702;2023-05-29T10:15:58;99642.81;;;22.61;50.26
45621;BME280;31345;51.522;10.702;2023-05-29T10:18:37;99632.63;;;22.48;50.72
45621;BME280;31345;51.522;10.702;2023-05-29T10:21:12;99640.66;;;22.57;54.50
45621;BME280;31345;51.522;10.702;2023-05-29T10:23:47;99637.28;;;22.30;52.06
45621;BME280;31345;51.522;10.702;2023-05-29T10:26:22;99630.66;;;22.42;49.77
45621;BME280;31345;51.522;10.702;2023-05-29T10:29:17;99632.47;;;22.42;49.51
45621;BME280;31345;51.522;10.702;2023-05-29T10:32:05;99635.50;;;21.87;54.75
45621;BME280;31345;51.522;10.702;2023-05-29T10:34:40;99625.72;;;22.04;51.73
45621;BME280;31345;51.522;10.702;2023-05-29T10:37:18;99626.22;;;22.08;54.09
45621;BME280;31345;51.522;10.702;2023-05-29T10:39:48;99625.47;;;21.72;52.46
45621;BME280;31345;51.522;10.702;2023-05-29T10:42:41;99617.00;;;21.77;50.63
45621;BME280;31345;51.522;10.702;2023-05-29T10:45:49;99606.25;;;22.04;53.15
45621;BME280;31345;51.522;10.702;2023-05-29T10:48:41;99612.44;;;22.12;50.83
45621;BME280;31345;51.522;10.702;2023-05-29T10:51:27;99621.81;;;22.58;52.16
45621;BME280;31345;51.522;10.702;2023-05-29T10:54:05;99619.34;;;22.73;50.32
45621;BME280;31345;51.522;10.702;2023-05-29T10:56:38;99626.34;;;22.58;54.30
45621;BME280;31345;51.522;10.702;2023-05-29T10:59:11;99616.44;;;22.17;52.25
45621;BME280;31345;51.522;10.702;2023-05-29T11:01:45;99613.13;;;21.63;53.61
45621;BME280;31345;51.522;10.702;2023-05-29T11:04:27;99612.94;;;21.56;54.26
45621;BME280;31345;51.522;10.702;2023-05-29T11:07:01;99611.00;;;21.40;54.83
45621;BME280;31345;51.522;10.702;2023-05-29T11:09:38;99610.84;;;21.42;56.69
45621;BME280;31345;51.522;10.702;2023-05-29T11:12:16;99615.16;;;21.69;58.16
45621;BME280;31345;51.522;10.702;2023-05-29T11:15:02;99619.94;;;22.25;52.77
45621;BME280;31345;51.522;10.702;2023-05-29T11:17:44;99616.13;;;22.20;52.34
45621;BME280;31345;51.522;10.702;2023-05-29T11:20:28;99614.00;;;22.73;56.36
45621;BME280;31345;51.522;10.702;2023-05-29T11:23:03;99609.97;;;22.94;50.78
45621;BME280;31345;51.522;10.702;2023-05-29T11:25:38;99609.22;;;23.42;53.91
45621;BME280;31345;51.522;10.702;2023-05-29T11:28:11;99603.28;;;23.63;47.93
45621;BME280;31345;51.522;10.702;2023-05-29T11:30:47;99596.69;;;23.51;46.88
45621;BME280;31345;51.522;10.702;2023-05-29T11:33:25;99601.91;;;23.76;51.92
45621;BME280;31345;51.522;10.702;2023-05-29T11:35:59;99603.50;;;23.85;48.50
45621;BME280;31345;51.522;10.702;2023-05-29T11:38:28;99606.28;;;23.69;49.92
45621;BME280;31345;51.522;10.702;2023-05-29T11:41:01;99607.03;;;23.86;48.50
45621;BME280;31345;51.522;10.702;2023-05-29T11:43:34;99605.44;;;23.20;49.09
45621;BME280;31345;51.522;10.702;2023-05-29T11:46:21;99600.75;;;23.22;47.43
45621;BME280;31345;51.522;10.702;2023-05-29T11:48:55;99603.16;;;22.92;50.95
45621;BME280;31345;51.522;10.702;2023-05-29T11:51:22;99606.31;;;22.87;49.32
45621;BME280;31345;51.522;10.702;2023-05-29T11:53:55;99606.00;;;22.90;48.90
45621;BME280;31345;51.522;10.702;2023-05-29T11:56:30;99602.25;;;23.16;48.26
45621;BME280;31345;51.522;10.702;2023-05-29T11:59:02;99603.94;;;23.65;52.97
45621;BME280;31345;51.522;10.702;2023-05-29T12:01:38;99598.28;;;23.92;48.02
45621;BME280;31345;51.522;10.702;2023-05-29T12:04:16;99604.63;;;24.23;52.12
45621;BME280;31345;51.522;10.702;2023-05-29T12:06:48;99599.66;;;24.43;46.13
45621;BME280;31345;51.522;10.702;2023-05-29T12:09:25;99594.31;;;24.20;46.30
45621;BME280;31345;51.522;10.702;2023-05-29T12:12:01;99594.75;;;23.68;48.07
45621;BME280;31345;51.522;10.702;2023-05-29T12:14:35;99595.59;;;23.12;49.75
45621;BME280;31345;51.522;10.702;2023-05-29T12:17:08;99599.00;;;22.56;49.95
45621;BME280;31345;51.522;10.702;2023-05-29T12:19:42;99601.78;;;22.12;51.58
45621;BME280;31345;51.522;10.702;2023-05-29T12:22:15;99599.97;;;21.61;54.23
45621;BME280;31345;51.522;10.702;2023-05-29T12:24:48;99602.53;;;21.45;52.47
45621;BME280;31345;51.522;10.702;2023-05-29T12:27:21;99598.25;;;21.17;52.46
45621;BME280;31345;51.522;10.702;2023-05-29T12:29:59;99600.88;;;21.09;53.04
45621;BME280;31345;51.522;10.702;2023-05-29T12:32:36;99598.22;;;21.09;53.42
45621;BME280;31345;51.522;10.702;2023-05-29T12:35:18;99601.31;;;21.31;56.28
45621;BME280;31345;51.522;10.702;2023-05-29T12:37:47;99598.38;;;21.85;54.70
45621;BME280;31345;51.522;10.702;2023-05-29T12:40:17;99594.31;;;22.33;51.89
45621;BME280;31345;51.522;10.702;2023-05-29T12:42:54;99598.25;;;23.20;55.03
45621;BME280;31345;51.522;10.702;2023-05-29T12:45:27;99598.00;;;23.47;50.28
45621;BME280;31345;51.522;10.702;2023-05-29T12:48:01;99591.53;;;23.49;53.87
45621;BME280;31345;51.522;10.702;2023-05-29T12:50:38;99593.59;;;23.31;51.82
45621;BME280;31345;51.522;10.702;2023-05-29T12:53:11;99593.84;;;22.79;53.48
45621;BME280;31345;51.522;10.702;2023-05-29T12:55:46;99596.16;;;22.66;51.65
45621;BME280;31345;51.522;10.702;2023-05-29T12:58:19;99605.63;;;22.27;52.29
45621;BME280;31345;51.522;10.702;2023-05-29T13:00:53;99596.13;;;22.16;54.61
45621;BME280;31345;51.522;10.702;2023-05-29T13:03:22;99593.16;;;22.27;50.88
45621;BME280;31345;51.522;10.702;2023-05-29T13:05:57;99602.78;;;22.11;54.77
45621;BME280;31345;51.522;10.702;2023-05-29T13:08:29;99603.13;;;22.33;57.26
45621;BME280;31345;51.522;10.702;2023-05-29T13:11:02;99594.84;;;22.61;51.09
45621;BME280;31345;51.522;10.702;2023-05-29T13:13:34;99586.53;;;22.56;52.20
45621;BME280;31345;51.522;10.702;2023-05-29T13:16:07;99594.50;;;22.31;54.22
45621;BME280;31345;51.522;10.702;2023-05-29T13:18:34;99584.75;;;21.89;52.72
45621;BME280;31345;51.522;10.702;2023-05-29T13:21:08;99583.66;;;21.56;54.00
45621;BME280;31345;51.522;10.702;2023-05-29T13:23:36;99581.72;;;21.40;54.49
45621;BME280;31345;51.522;10.702;2023-05-29T13:26:09;99586.75;;;21.43;54.73